createdAt,value
2023-03-03T00:02:24.386Z,11.70
2023-03-03T00:05:00.417Z,11.80
2023-03-03T00:07:36.519Z,11.80
2023-03-03T00:10:15.544Z,12.10
2023-03-03T00:12:54.810Z,12.20
2023-03-03T00:15:32.775Z,12.20
2023-03-03T00:18:17.317Z,12.40
2023-03-03T00:20:58.901Z,12.60
2023-03-03T00:23:42.682Z,12.70
2023-03-03T00:26:27.590Z,12.90
2023-03-03T00:29:03.635Z,13.00
2023-03-03T00:31:41.632Z,13.10
2023-03-03T00:34:29.980Z,13.10
2023-03-03T00:37:06.544Z,13.40
2023-03-03T00:39:44.104Z,13.60
2023-03-03T00:42:25.901Z,13.70
2023-03-03T00:45:04.983Z,13.90
2023-03-03T00:47:43.966Z,14.20
2023-03-03T00:50:39.672Z,14.50
2023-03-03T00:53:21.403Z,14.70
2023-03-03T00:56:03.952Z,15.00
2023-03-03T00:58:43.161Z,15.00
2023-03-03T01:01:23.622Z,15.20
2023-03-03T01:04:03.386Z,15.80
2023-03-03T01:06:40.267Z,15.90
2023-03-03T01:09:16.740Z,16.00
2023-03-03T01:11:56.726Z,16.10
2023-03-03T01:14:38.680Z,16.30
2023-03-03T01:17:14.854Z,16.60
2023-03-03T01:19:54.736Z,16.80
2023-03-03T01:22:31.071Z,16.80
2023-03-03T01:25:08.898Z,17.00
2023-03-03T01:27:46.565Z,17.10
2023-03-03T01:30:28.200Z,16.90
2023-03-03T01:33:04.499Z,17.20
2023-03-03T01:35:48.647Z,17.50
2023-03-03T01:38:25.228Z,18.00
2023-03-03T01:41:07.047Z,18.00
2023-03-03T01:43:51.174Z,18.40
2023-03-03T01:46:46.218Z,18.40
2023-03-03T01:49:24.731Z,19.00
2023-03-03T01:52:03.486Z,18.90
2023-03-03T01:54:46.696Z,19.30
2023-03-03T01:57:26.824Z,19.40
2023-03-03T02:00:05.137Z,19.20
2023-03-03T02:02:52.987Z,19.10
2023-03-03T02:05:29.826Z,19.50
2023-03-03T02:08:07.070Z,19.60
2023-03-03T02:10:47.052Z,19.70
2023-03-03T02:13:23.184Z,19.70
2023-03-03T02:16:00.954Z,19.80
2023-03-03T02:18:39.600Z,20.60
2023-03-03T02:21:19.925Z,20.80
2023-03-03T02:24:04.068Z,20.60
2023-03-03T02:26:49.110Z,20.70
2023-03-03T02:29:26.993Z,20.70
2023-03-03T02:32:03.543Z,20.90
2023-03-03T02:34:52.794Z,21.10
2023-03-03T02:37:29.702Z,21.10
2023-03-03T02:40:10.788Z,20.90
2023-03-03T02:42:50.593Z,20.90
2023-03-03T02:45:28.227Z,21.20
2023-03-03T02:48:06.681Z,21.10
2023-03-03T02:50:43.023Z,21.20
2023-03-03T02:53:20.646Z,21.50
2023-03-03T02:55:56.862Z,21.60
2023-03-03T02:58:35.737Z,22.10
2023-03-03T03:01:13.219Z,22.70
2023-03-03T03:03:54.731Z,22.40
2023-03-03T03:06:32.586Z,22.70
2023-03-03T03:09:12.213Z,22.10
2023-03-03T03:11:48.674Z,22.20
2023-03-03T03:14:29.981Z,22.50
2023-03-03T03:17:06.557Z,22.50
2023-03-03T03:19:47.137Z,22.20
2023-03-03T03:22:23.235Z,21.90
2023-03-03T03:25:00.323Z,22.20
2023-03-03T03:27:41.488Z,22.00
2023-03-03T03:30:23.868Z,22.30
2023-03-03T03:33:00.128Z,22.70
2023-03-03T03:35:36.869Z,21.10
2023-03-03T03:38:14.062Z,21.20
2023-03-03T03:40:51.616Z,21.80
2023-03-03T03:43:28.395Z,21.90
2023-03-03T03:46:07.695Z,22.30
2023-03-03T03:48:45.646Z,22.50
2023-03-03T03:51:24.154Z,22.40
2023-03-03T03:54:00.158Z,22.00
2023-03-03T03:56:43.698Z,21.90
2023-03-03T03:59:22.002Z,21.70
2023-03-03T04:02:05.636Z,21.50
2023-03-03T04:04:43.227Z,21.70
2023-03-03T04:07:25.669Z,21.80
2023-03-03T04:10:04.318Z,21.80
2023-03-03T04:12:44.572Z,21.50
2023-03-03T04:15:27.478Z,20.80
2023-03-03T04:18:12.033Z,21.00
2023-03-03T04:20:49.894Z,21.20
2023-03-03T04:23:32.084Z,20.50
2023-03-03T04:26:10.498Z,20.20
2023-03-03T04:28:53.131Z,20.10
2023-03-03T04:31:42.852Z,20.20
2023-03-03T04:34:33.920Z,20.20
2023-03-03T04:37:17.322Z,20.40
2023-03-03T04:39:56.890Z,20.40
2023-03-03T04:42:40.873Z,20.00
2023-03-03T04:45:20.290Z,20.30
2023-03-03T04:48:02.461Z,20.40
2023-03-03T04:50:49.557Z,20.30
2023-03-03T04:53:29.068Z,20.30
2023-03-03T04:56:08.986Z,19.90
2023-03-03T04:58:48.185Z,19.70
2023-03-03T05:01:25.049Z,19.60
2023-03-03T05:04:04.807Z,19.90
2023-03-03T05:06:50.905Z,19.80
2023-03-03T05:09:27.000Z,20.00
2023-03-03T05:12:02.968Z,19.60
2023-03-03T05:14:45.062Z,19.70
2023-03-03T05:17:23.354Z,19.70
2023-03-03T05:19:59.610Z,19.60
2023-03-03T05:22:40.417Z,19.50
2023-03-03T05:25:19.870Z,19.40
2023-03-03T05:27:59.405Z,19.30
2023-03-03T05:30:35.657Z,19.30
2023-03-03T05:33:12.047Z,19.60
2023-03-03T05:35:51.567Z,19.60
2023-03-03T05:38:30.759Z,19.80
2023-03-03T05:41:07.144Z,19.60
2023-03-03T05:43:46.753Z,19.80
2023-03-03T05:46:23.634Z,19.80
2023-03-03T05:49:00.740Z,19.70
2023-03-03T05:51:40.633Z,19.70
2023-03-03T05:54:19.361Z,19.70
2023-03-03T05:56:55.823Z,19.50
2023-03-03T05:59:35.068Z,19.50
2023-03-03T06:02:11.558Z,19.50
2023-03-03T06:05:10.558Z,19.70
2023-03-03T06:07:47.058Z,19.70
2023-03-03T06:10:26.318Z,19.90
2023-03-03T06:13:06.896Z,19.90
2023-03-03T06:15:46.908Z,20.10
2023-03-03T06:18:25.903Z,20.30
2023-03-03T06:21:02.341Z,20.20
2023-03-03T06:23:40.424Z,19.90
2023-03-03T06:26:20.535Z,19.80
2023-03-03T06:28:57.469Z,20.10
2023-03-03T06:31:35.323Z,20.10
2023-03-03T06:34:11.693Z,19.90
2023-03-03T06:36:49.415Z,19.90
2023-03-03T06:39:25.804Z,20.00
2023-03-03T06:42:09.724Z,20.20
2023-03-03T06:44:48.021Z,20.10
2023-03-03T06:47:24.593Z,20.30
2023-03-03T06:50:06.821Z,20.30
2023-03-03T06:52:44.733Z,20.40
2023-03-03T06:55:31.287Z,20.40
2023-03-03T06:58:17.059Z,20.30
2023-03-03T07:00:58.960Z,20.10
2023-03-03T07:03:38.050Z,20.10
2023-03-03T07:06:26.107Z,19.90
2023-03-03T07:09:04.302Z,19.90
2023-03-03T07:11:44.001Z,19.80
2023-03-03T07:14:26.033Z,19.80
2023-03-03T07:17:06.717Z,19.80
2023-03-03T07:19:43.619Z,19.80
2023-03-03T07:22:24.164Z,19.50
2023-03-03T07:25:04.832Z,19.70
2023-03-03T07:27:42.536Z,19.80
2023-03-03T07:30:39.335Z,19.90
2023-03-03T07:33:29.356Z,19.90
2023-03-03T07:36:08.609Z,19.90
2023-03-03T07:38:51.935Z,19.90
2023-03-03T07:41:28.707Z,19.90
2023-03-03T07:44:10.271Z,20.10
2023-03-03T07:46:54.451Z,20.40
2023-03-03T07:49:38.172Z,20.40
2023-03-03T07:52:31.018Z,20.50
2023-03-03T07:55:25.079Z,20.70
2023-03-03T07:58:07.740Z,20.40
2023-03-03T08:01:17.324Z,20.40
2023-03-03T08:04:02.978Z,20.40
2023-03-03T08:07:00.724Z,20.50
2023-03-03T08:09:48.330Z,20.50
2023-03-03T08:12:43.582Z,20.40
2023-03-03T08:15:30.420Z,20.40
2023-03-03T08:18:23.310Z,20.30
2023-03-03T08:21:13.986Z,20.40
2023-03-03T08:23:56.367Z,20.20
2023-03-03T08:26:38.132Z,20.10
2023-03-03T08:29:21.171Z,20.00
2023-03-03T08:31:59.571Z,20.30
2023-03-03T08:34:41.240Z,20.50
2023-03-03T08:37:25.213Z,20.50
2023-03-03T08:40:07.808Z,20.30
2023-03-03T08:42:49.074Z,20.30
2023-03-03T08:45:25.523Z,20.50
2023-03-03T08:48:11.197Z,20.40
2023-03-03T08:50:50.252Z,20.50
2023-03-03T08:53:42.314Z,20.60
2023-03-03T08:56:19.695Z,20.40
2023-03-03T08:59:02.546Z,20.30
2023-03-03T09:01:46.567Z,20.30
2023-03-03T09:04:25.482Z,20.30
2023-03-03T09:07:02.098Z,20.30
2023-03-03T09:09:41.696Z,20.20
2023-03-03T09:12:23.271Z,20.10
2023-03-03T09:15:01.223Z,20.10
2023-03-03T09:17:40.283Z,20.20
2023-03-03T09:20:34.183Z,20.10
2023-03-03T09:23:44.274Z,20.00
2023-03-03T09:26:45.688Z,20.00
2023-03-03T09:29:32.322Z,20.10
2023-03-03T09:32:13.966Z,20.10
2023-03-03T09:34:54.502Z,19.90
2023-03-03T09:37:34.691Z,19.90
2023-03-03T09:40:33.980Z,19.90
2023-03-03T09:43:25.535Z,20.00
2023-03-03T09:46:09.433Z,20.00
2023-03-03T09:48:58.251Z,19.90
2023-03-03T09:52:02.969Z,19.90
2023-03-03T09:54:52.429Z,19.80
2023-03-03T09:57:35.216Z,19.80
2023-03-03T10:00:51.228Z,19.80
2023-03-03T10:03:59.577Z,19.70
2023-03-03T10:06:40.017Z,19.70
2023-03-03T10:10:02.992Z,19.70
2023-03-03T10:12:51.014Z,19.70
2023-03-03T10:15:42.844Z,19.60
2023-03-03T10:18:38.865Z,19.50
2023-03-03T10:21:22.705Z,19.40
2023-03-03T10:24:06.857Z,19.30
2023-03-03T10:27:16.032Z,19.30
2023-03-03T10:30:06.733Z,19.30
2023-03-03T10:32:59.619Z,19.20
2023-03-03T10:36:07.863Z,19.10
2023-03-03T10:39:03.391Z,19.00
2023-03-03T10:42:03.338Z,19.00
2023-03-03T10:45:05.724Z,18.90
2023-03-03T10:48:12.163Z,18.80
2023-03-03T10:51:02.466Z,18.70
2023-03-03T10:53:49.925Z,18.60
2023-03-03T10:56:52.143Z,18.70
2023-03-03T10:59:53.427Z,18.60
2023-03-03T11:02:39.145Z,18.50
2023-03-03T11:05:34.754Z,18.50
2023-03-03T11:08:20.813Z,18.40
2023-03-03T11:11:11.916Z,18.40
2023-03-03T11:13:58.621Z,18.30
2023-03-03T11:16:58.911Z,18.30
2023-03-03T11:19:51.915Z,18.20
2023-03-03T11:22:46.865Z,18.20
2023-03-03T11:25:44.261Z,18.10
2023-03-03T11:28:38.746Z,18.10
2023-03-03T11:31:28.743Z,18.10
2023-03-03T11:34:22.686Z,18.00
2023-03-03T11:37:07.891Z,18.00
2023-03-03T11:39:48.593Z,18.00
2023-03-03T11:42:36.993Z,18.00
2023-03-03T11:45:23.658Z,17.90
2023-03-03T11:48:10.744Z,17.90
2023-03-03T11:50:58.222Z,17.90
2023-03-03T11:54:15.847Z,17.90
2023-03-03T11:57:00.063Z,17.90
2023-03-03T12:00:03.472Z,17.80
2023-03-03T12:03:13.518Z,17.80
2023-03-03T12:06:07.674Z,17.80
2023-03-03T12:09:14.946Z,17.70
2023-03-03T12:12:03.481Z,17.70
2023-03-03T12:15:01.786Z,17.60
2023-03-03T12:18:34.926Z,17.60
2023-03-03T12:21:25.744Z,17.60
2023-03-03T12:24:34.347Z,17.60
2023-03-03T12:27:25.775Z,17.50
2023-03-03T12:30:14.984Z,17.40
2023-03-03T12:33:26.398Z,17.40
2023-03-03T12:36:22.668Z,17.40
2023-03-03T12:39:08.422Z,17.30
2023-03-03T12:42:01.087Z,17.30
2023-03-03T12:44:50.637Z,17.30
2023-03-03T12:47:37.805Z,17.30
2023-03-03T12:50:36.949Z,17.20
2023-03-03T12:53:29.419Z,17.20
2023-03-03T12:56:11.465Z,17.10
2023-03-03T12:58:58.476Z,17.10
2023-03-03T13:01:45.682Z,17.00
2023-03-03T13:04:43.741Z,17.00
2023-03-03T13:07:42.728Z,17.00
2023-03-03T13:10:38.233Z,17.00
2023-03-03T13:13:25.241Z,16.90
2023-03-03T13:16:10.128Z,17.00
2023-03-03T13:19:03.384Z,16.80
2023-03-03T13:21:49.380Z,16.90
2023-03-03T13:24:41.676Z,16.90
2023-03-03T13:27:25.856Z,17.00
2023-03-03T13:30:16.937Z,17.00
2023-03-03T13:33:11.633Z,17.00
2023-03-03T13:35:56.748Z,16.90
2023-03-03T13:38:36.596Z,16.90
2023-03-03T13:41:32.562Z,16.80
2023-03-03T13:44:17.474Z,16.80
2023-03-03T13:47:11.751Z,16.80
2023-03-03T13:50:12.219Z,16.80
2023-03-03T13:53:10.478Z,16.80
2023-03-03T13:56:00.144Z,16.80
2023-03-03T13:58:58.488Z,16.80
2023-03-03T14:01:44.206Z,16.80
2023-03-03T14:04:41.868Z,16.80
2023-03-03T14:07:24.053Z,16.70
2023-03-03T14:10:08.696Z,16.70
2023-03-03T14:12:57.820Z,16.60
2023-03-03T14:15:50.683Z,16.70
2023-03-03T14:18:36.349Z,16.70
2023-03-03T14:21:26.462Z,16.70
2023-03-03T14:24:12.739Z,16.50
2023-03-03T14:27:01.515Z,16.40
2023-03-03T14:29:53.011Z,16.40
2023-03-03T14:32:45.077Z,16.40
2023-03-03T14:35:28.949Z,16.40
2023-03-03T14:38:13.927Z,16.40
2023-03-03T14:40:52.676Z,16.30
2023-03-03T14:43:36.813Z,16.20
2023-03-03T14:46:58.551Z,16.20
2023-03-03T14:49:42.564Z,16.20
2023-03-03T14:52:39.792Z,16.20
2023-03-03T14:55:42.127Z,16.20
2023-03-03T14:58:40.770Z,16.20
2023-03-03T15:01:26.028Z,16.20
2023-03-03T15:04:09.964Z,16.10
2023-03-03T15:06:59.965Z,16.10
2023-03-03T15:09:44.002Z,16.10
2023-03-03T15:12:43.003Z,16.10
2023-03-03T15:15:34.024Z,16.10
2023-03-03T15:18:20.479Z,16.20
2023-03-03T15:21:10.047Z,16.20
2023-03-03T15:24:02.287Z,16.20
2023-03-03T15:26:55.810Z,16.10
2023-03-03T15:29:47.059Z,16.10
2023-03-03T15:32:32.192Z,16.00
2023-03-03T15:35:30.194Z,16.00
2023-03-03T15:38:28.845Z,16.00
2023-03-03T15:41:26.456Z,16.00
2023-03-03T15:44:29.143Z,15.90
2023-03-03T15:47:28.928Z,15.90
2023-03-03T15:50:33.187Z,15.90
2023-03-03T15:53:29.248Z,15.80
2023-03-03T15:56:26.348Z,15.80
2023-03-03T15:59:38.589Z,15.80
2023-03-03T16:02:29.590Z,15.80
2023-03-03T16:05:18.598Z,15.80
2023-03-03T16:08:07.600Z,15.80
2023-03-03T16:11:00.117Z,15.60
2023-03-03T16:13:55.245Z,15.60
2023-03-03T16:16:45.895Z,15.60
2023-03-03T16:19:36.269Z,15.60
2023-03-03T16:22:33.161Z,15.60
2023-03-03T16:25:27.718Z,15.50
2023-03-03T16:28:16.107Z,15.50
2023-03-03T16:31:03.917Z,15.50
2023-03-03T16:33:49.576Z,15.50
2023-03-03T16:36:37.737Z,15.50
2023-03-03T16:39:23.932Z,15.30
2023-03-03T16:42:06.517Z,15.30
2023-03-03T16:44:57.477Z,15.20
2023-03-03T16:47:58.561Z,15.10
2023-03-03T16:50:43.661Z,15.10
2023-03-03T16:53:32.552Z,15.00
2023-03-03T16:56:16.534Z,14.90
2023-03-03T16:59:16.040Z,14.90
2023-03-03T17:02:03.602Z,14.90
2023-03-03T17:04:53.706Z,14.90
2023-03-03T17:07:49.186Z,14.90
2023-03-03T17:10:32.925Z,14.90
2023-03-03T17:13:20.975Z,14.90
2023-03-03T17:16:10.120Z,14.80
2023-03-03T17:19:06.753Z,14.90
2023-03-03T17:22:02.930Z,14.90
2023-03-03T17:24:53.779Z,14.80
2023-03-03T17:27:40.173Z,14.80
2023-03-03T17:30:26.070Z,14.90
2023-03-03T17:33:23.055Z,14.90
2023-03-03T17:36:21.860Z,14.80
2023-03-03T17:39:12.129Z,14.90
2023-03-03T17:41:57.015Z,14.80
2023-03-03T17:44:43.108Z,14.80
2023-03-03T17:47:26.021Z,14.70
2023-03-03T17:50:19.010Z,14.70
2023-03-03T17:53:11.390Z,14.70
2023-03-03T17:56:13.472Z,14.70
2023-03-03T17:59:22.001Z,14.60
2023-03-03T18:02:15.988Z,14.60
2023-03-03T18:05:12.446Z,14.60
2023-03-03T18:07:58.420Z,14.60
2023-03-03T18:11:10.094Z,14.70
2023-03-03T18:14:11.716Z,14.60
2023-03-03T18:17:07.633Z,14.60
2023-03-03T18:20:06.217Z,14.50
2023-03-03T18:22:50.430Z,14.50
2023-03-03T18:25:28.994Z,14.40
2023-03-03T18:28:28.253Z,14.60
2023-03-03T18:31:31.885Z,14.50
2023-03-03T18:34:13.451Z,14.50
2023-03-03T18:37:00.301Z,14.50
2023-03-03T18:39:47.702Z,14.50
2023-03-03T18:42:42.598Z,14.60
2023-03-03T18:45:57.142Z,14.60
2023-03-03T18:49:06.433Z,14.70
2023-03-03T18:52:22.901Z,14.70
2023-03-03T18:55:29.666Z,14.60
2023-03-03T18:58:35.774Z,14.60
2023-03-03T19:01:43.386Z,14.60
2023-03-03T19:04:28.856Z,14.60
2023-03-03T19:07:28.484Z,14.60
2023-03-03T19:10:05.696Z,14.50
2023-03-03T19:12:53.256Z,14.60
2023-03-03T19:15:50.989Z,14.70
2023-03-03T19:18:28.540Z,14.70
2023-03-03T19:21:08.708Z,14.80
2023-03-03T19:24:01.465Z,14.90
2023-03-03T19:27:16.410Z,14.80
2023-03-03T19:30:30.851Z,14.70
2023-03-03T19:33:37.535Z,14.80
2023-03-03T19:36:38.976Z,14.80
2023-03-03T19:39:46.118Z,14.80
2023-03-03T19:42:33.653Z,15.00
2023-03-03T19:45:32.252Z,15.10
2023-03-03T19:48:14.001Z,14.90
2023-03-03T19:50:56.134Z,14.80
2023-03-03T19:53:39.474Z,14.70
2023-03-03T19:56:40.676Z,14.60
2023-03-03T19:59:27.539Z,14.70
2023-03-03T20:02:24.433Z,14.60
2023-03-03T20:05:11.833Z,14.60
2023-03-03T20:07:55.022Z,14.70
2023-03-03T20:10:48.993Z,14.70
2023-03-03T20:13:38.650Z,14.60
2023-03-03T20:16:28.037Z,14.60
2023-03-03T20:19:26.843Z,14.50
2023-03-03T20:22:12.976Z,14.50
2023-03-03T20:25:03.726Z,14.40
2023-03-03T20:27:48.762Z,14.60
2023-03-03T20:30:32.284Z,14.60
2023-03-03T20:33:20.942Z,14.60
2023-03-03T20:36:06.523Z,14.60
2023-03-03T20:38:49.674Z,14.70
2023-03-03T20:41:34.441Z,14.60
2023-03-03T20:44:25.287Z,14.70
2023-03-03T20:47:06.348Z,14.60
2023-03-03T20:50:16.642Z,14.70
2023-03-03T20:53:07.544Z,14.80
2023-03-03T20:55:52.504Z,14.60
2023-03-03T20:58:36.564Z,14.50
2023-03-03T21:01:16.830Z,14.40
2023-03-03T21:03:51.220Z,14.40
2023-03-03T21:06:27.905Z,14.50
2023-03-03T21:09:04.175Z,14.40
2023-03-03T21:11:48.322Z,14.40
2023-03-03T21:14:26.221Z,14.50
2023-03-03T21:17:04.228Z,14.50
2023-03-03T21:19:40.429Z,14.60
2023-03-03T21:22:15.672Z,14.50
2023-03-03T21:24:54.710Z,14.60
2023-03-03T21:27:34.081Z,14.70
2023-03-03T21:30:10.175Z,14.80
2023-03-03T21:32:49.630Z,14.80
2023-03-03T21:35:25.114Z,14.80
2023-03-03T21:38:01.924Z,14.70
2023-03-03T21:40:37.512Z,14.50
2023-03-03T21:43:11.931Z,14.60
2023-03-03T21:45:48.089Z,14.60
2023-03-03T21:48:24.934Z,14.70
2023-03-03T21:51:00.560Z,14.80
2023-03-03T21:53:34.441Z,14.70
2023-03-03T21:56:08.906Z,14.70
2023-03-03T21:58:43.108Z,14.80
2023-03-03T22:01:17.989Z,14.90
2023-03-03T22:03:54.164Z,14.80
2023-03-03T22:06:29.414Z,14.90
2023-03-03T22:09:04.948Z,14.80
2023-03-03T22:11:39.824Z,14.80
2023-03-03T22:14:15.077Z,14.70
2023-03-03T22:16:50.377Z,14.60
2023-03-03T22:19:28.587Z,14.60
2023-03-03T22:22:04.004Z,14.70
2023-03-03T22:24:38.560Z,14.70
2023-03-03T22:27:13.450Z,14.70
2023-03-03T22:29:48.400Z,14.80
2023-03-03T22:32:24.173Z,14.90
2023-03-03T22:35:02.419Z,15.00
2023-03-03T22:37:38.245Z,14.90
2023-03-03T22:40:15.199Z,14.90
2023-03-03T22:42:51.125Z,14.90
2023-03-03T22:45:26.801Z,14.90
2023-03-03T22:48:02.040Z,14.80
2023-03-03T22:50:42.267Z,14.80
2023-03-03T22:53:18.535Z,14.70
2023-03-03T22:55:54.947Z,14.90
2023-03-03T22:58:30.689Z,14.80
2023-03-03T23:01:08.508Z,14.70
2023-03-03T23:03:44.576Z,14.50
2023-03-03T23:06:22.575Z,14.40
2023-03-03T23:08:58.289Z,14.50
2023-03-03T23:11:34.010Z,14.60
2023-03-03T23:14:10.048Z,14.60
2023-03-03T23:16:47.169Z,14.50
2023-03-03T23:19:22.622Z,14.40
2023-03-03T23:22:01.037Z,14.40
2023-03-03T23:24:37.399Z,14.10
2023-03-03T23:27:13.905Z,13.80
2023-03-03T23:29:49.222Z,13.80
2023-03-03T23:32:26.108Z,13.90
2023-03-03T23:35:02.011Z,13.50
2023-03-03T23:37:40.039Z,13.10
2023-03-03T23:40:17.410Z,13.10
2023-03-03T23:42:53.572Z,13.10
2023-03-03T23:45:29.656Z,13.40
2023-03-03T23:48:05.542Z,13.60
2023-03-03T23:50:41.792Z,14.00
2023-03-03T23:53:20.914Z,14.30
2023-03-03T23:55:56.865Z,14.40
2023-03-03T23:58:32.444Z,14.60
